Time;durP1;ratioP1;P1;durP2;ratioP2;P2;SDS_P1;SDS_P2;PMS_P1;PMS_P2;Temp;Humidity;BMP_temperature;BMP_pressure;BME280_temperature;BME280_humidity;BME280_pressure;Samples;Min_cycle;Max_cycle;Signal;HPM_P1;HPM_P2
2024/04/25 00:00:07;;;;;;;0.60;0.60;;;;;;;2.50;100.00;96052.25;29395;224;63025;-57
2024/04/25 00:00:40;;;;;;;0.60;0.60;;;;;;;2.50;100.00;96041.56;29395;207;63005;-57
2024/04/25 00:01:11;;;;;;;0.60;0.60;;;;;;;2.51;100.00;96045.03;29395;216;63015;-57
2024/04/25 00:01:43;;;;;;;0.60;0.60;;;;;;;2.50;100.00;96046.91;29395;249;63004;-63
2024/04/25 00:02:14;;;;;;;0.60;0.60;;;;;;;2.52;100.00;96046.66;29395;247;63009;-57
2024/04/25 00:02:48;;;;;;;0.60;0.60;;;;;;;2.50;100.00;96046.91;29395;240;63004;-57
2024/04/25 00:03:19;;;;;;;0.60;0.60;;;;;;;2.46;100.00;96045.81;29395;211;63009;-57
2024/04/25 00:03:51;;;;;;;0.60;0.60;;;;;;;2.50;100.00;96046.09;29395;196;63004;-57
2024/04/25 00:04:22;;;;;;;0.60;0.60;;;;;;;2.48;100.00;96048.25;29394;208;64013;-56
2024/04/25 00:04:54;;;;;;;0.60;0.60;;;;;;;2.51;100.00;96056.56;29395;202;63004;-57
2024/04/25 00:05:25;;;;;;;0.55;0.55;;;;;;;2.52;100.00;96050.12;29395;241;63009;-57
2024/04/25 00:05:59;;;;;;;0.60;0.60;;;;;;;2.53;100.00;96054.41;29395;210;63005;-56
2024/04/25 00:06:30;;;;;;;0.60;0.60;;;;;;;2.52;100.00;96050.12;29395;231;63011;-57
2024/04/25 00:07:02;;;;;;;0.60;0.60;;;;;;;2.53;100.00;96046.38;29395;225;63011;-62
2024/04/25 00:07:33;;;;;;;0.60;0.60;;;;;;;2.51;100.00;96045.84;29395;219;63009;-58
2024/04/25 00:08:06;;;;;;;0.60;0.60;;;;;;;2.52;100.00;96049.31;29395;287;63005;-58
2024/04/25 00:08:38;;;;;;;0.60;0.60;;;;;;;2.50;100.00;96041.56;29394;203;64013;-57
2024/04/25 00:09:10;;;;;;;0.60;0.60;;;;;;;2.50;100.00;96044.22;29395;241;63004;-57
2024/04/25 00:09:42;;;;;;;0.60;0.60;;;;;;;2.50;100.00;96046.91;29395;233;63009;-58
2024/04/25 00:10:13;;;;;;;0.60;0.60;;;;;;;2.50;100.00;96054.13;29395;244;63004;-58
2024/04/25 00:10:50;;;;;;;0.60;0.60;;;;;;;2.55;100.00;96048.81;29394;197;64009;-56
2024/04/25 00:11:22;;;;;;;0.60;0.60;;;;;;;2.57;100.00;96047.47;29395;210;63004;-57
2024/04/25 00:11:56;;;;;;;0.60;0.60;;;;;;;2.57;100.00;96047.47;29395;205;63008;-58
2024/04/25 00:12:27;;;;;;;0.60;0.60;;;;;;;2.56;100.00;96040.50;29395;203;63005;-58
2024/04/25 00:12:59;;;;;;;0.60;0.60;;;;;;;2.52;100.00;96042.09;29395;204;63009;-57
2024/04/25 00:13:30;;;;;;;0.60;0.60;;;;;;;2.52;100.00;96039.41;29395;222;63005;-57
2024/04/25 00:14:02;;;;;;;0.60;0.60;;;;;;;2.52;100.00;96038.63;29394;212;64013;-57
2024/04/25 00:14:37;;;;;;;0.60;0.60;;;;;;;2.49;100.00;96045.28;29395;235;63005;-63
2024/04/25 00:15:08;;;;;;;0.60;0.60;;;;;;;2.49;100.00;96039.94;29395;219;63009;-57
2024/04/25 00:15:40;;;;;;;0.60;0.60;;;;;;;2.47;100.00;96042.06;29395;241;63005;-57
2024/04/25 00:16:11;;;;;;;0.60;0.60;;;;;;;2.48;100.00;96042.88;29395;235;63009;-57
2024/04/25 00:16:42;;;;;;;0.60;0.60;;;;;;;2.49;100.00;96044.50;29395;265;63004;-55
2024/04/25 00:17:13;;;;;;;0.60;0.60;;;;;;;2.51;100.00;96037.81;29395;216;63009;-56
2024/04/25 00:17:45;;;;;;;0.60;0.60;;;;;;;2.50;100.00;96036.19;29394;202;64009;-56
2024/04/25 00:18:16;;;;;;;0.60;0.60;;;;;;;2.49;100.00;96039.94;29395;223;63009;-58
2024/04/25 00:18:47;;;;;;;0.62;0.62;;;;;;;2.47;100.00;96034.03;29395;228;63004;-57
2024/04/25 00:19:19;;;;;;;0.60;0.60;;;;;;;2.46;100.00;96045.81;29395;202;63008;-56
2024/04/25 00:19:50;;;;;;;0.70;0.70;;;;;;;2.45;100.00;96041.53;29395;205;63005;-57
2024/04/25 00:20:22;;;;;;;0.60;0.60;;;;;;;2.45;100.00;96044.22;29395;223;63009;-56
2024/04/25 00:20:53;;;;;;;0.60;0.60;;;;;;;2.45;100.00;96044.22;29395;210;63005;-57
2024/04/25 00:21:25;;;;;;;0.60;0.60;;;;;;;2.47;100.00;96041.28;29395;220;63009;-57
2024/04/25 00:21:56;;;;;;;0.60;0.60;;;;;;;2.47;100.00;96046.63;29395;213;63019;-57
2024/04/25 00:22:27;;;;;;;0.60;0.60;;;;;;;2.47;100.00;96042.06;29395;198;63014;-57
2024/04/25 00:22:58;;;;;;;0.60;0.60;;;;;;;2.46;100.00;96040.47;29394;210;64009;-57
2024/04/25 00:23:29;;;;;;;0.60;0.60;;;;;;;2.45;100.00;96038.84;29395;210;63009;-57
2024/04/25 00:24:01;;;;;;;0.60;0.60;;;;;;;2.45;100.00;96038.03;29395;210;63004;-56
2024/04/25 00:24:32;;;;;;;0.60;0.60;;;;;;;2.49;100.00;96036.47;29395;222;63009;-56
2024/04/25 00:25:05;;;;;;;0.60;0.60;;;;;;;2.50;100.00;96041.56;29395;202;63011;-56
2024/04/25 00:25:36;;;;;;;0.60;0.60;;;;;;;2.49;100.00;96039.94;29395;320;63009;-56
2024/04/25 00:26:07;;;;;;;0.60;0.60;;;;;;;2.47;100.00;96042.06;29395;272;63004;-56
2024/04/25 00:26:38;;;;;;;0.60;0.60;;;;;;;2.45;100.00;96033.50;29395;198;63008;-57
2024/04/25 00:27:10;;;;;;;0.60;0.60;;;;;;;2.44;100.00;96041.78;29395;256;63005;-56
2024/04/25 00:27:41;;;;;;;0.60;0.60;;;;;;;2.41;100.00;96037.00;29395;242;63009;-58
2024/04/25 00:28:14;;;;;;;0.60;0.60;;;;;;;2.39;100.00;96033.75;29394;216;64009;-57
2024/04/25 00:28:46;;;;;;;0.60;0.60;;;;;;;2.39;100.00;96036.44;29395;244;63009;-58
2024/04/25 00:29:17;;;;;;;0.60;0.60;;;;;;;2.38;100.00;96037.50;29394;277;64005;-57
2024/04/25 00:29:48;;;;;;;0.60;0.60;;;;;;;2.39;100.00;96031.09;29395;225;63017;-57
2024/04/25 00:30:19;;;;;;;0.60;0.60;;;;;;;2.38;100.00;96026.81;29395;199;63008;-58
2024/04/25 00:30:51;;;;;;;0.60;0.60;;;;;;;2.39;100.00;96029.22;29395;246;63009;-58
2024/04/25 00:31:23;;;;;;;0.60;0.60;;;;;;;2.38;100.00;96027.59;29395;237;63004;-57
2024/04/25 00:31:54;;;;;;;0.60;0.60;;;;;;;2.38;100.00;96035.63;29395;215;63009;-56
2024/04/25 00:32:26;;;;;;;0.60;0.60;;;;;;;2.39;100.00;96034.56;29395;215;63004;-57
2024/04/25 00:32:58;;;;;;;0.60;0.60;;;;;;;2.41;100.00;96037.78;29395;225;63009;-57
2024/04/25 00:33:29;;;;;;;0.60;0.60;;;;;;;2.41;100.00;96032.44;29394;213;64009;-66
2024/04/25 00:34:00;;;;;;;0.60;0.60;;;;;;;2.40;100.00;96028.16;29395;204;63008;-58
2024/04/25 00:34:32;;;;;;;0.60;0.60;;;;;;;2.39;100.00;96034.56;29395;202;63004;-57
2024/04/25 00:35:04;;;;;;;0.60;0.60;;;;;;;2.38;100.00;96035.63;29395;213;63009;-58
2024/04/25 00:35:35;;;;;;;0.60;0.60;;;;;;;2.35;100.00;96033.47;29395;272;63005;-57
2024/04/25 00:36:07;;;;;;;0.60;0.60;;;;;;;2.35;100.00;96033.47;29395;317;63009;-57
2024/04/25 00:36:38;;;;;;;0.60;0.60;;;;;;;2.33;100.00;96024.91;29395;205;63005;-58
2024/04/25 00:37:09;;;;;;;0.60;0.60;;;;;;;2.32;100.00;96036.69;29395;221;63009;-57
2024/04/25 00:37:41;;;;;;;0.60;0.60;;;;;;;2.29;100.00;96029.16;29395;207;63005;-57
2024/04/25 00:38:13;;;;;;;0.60;0.60;;;;;;;2.27;100.00;96031.28;29395;207;63009;-57
2024/04/25 00:38:44;;;;;;;0.60;0.60;;;;;;;2.25;100.00;96028.06;29394;214;64009;-58
2024/04/25 00:39:15;;;;;;;0.70;0.70;;;;;;;2.25;100.00;96030.75;29395;358;63009;-57
2024/04/25 00:39:46;;;;;;;0.60;0.60;;;;;;;2.25;100.00;96025.41;29395;230;63004;-58
2024/04/25 00:40:21;;;;;;;0.60;0.60;;;;;;;2.25;100.00;96028.06;29395;228;63026;-65
2024/04/25 00:40:52;;;;;;;0.70;0.70;;;;;;;2.23;100.00;96031.00;29395;202;63004;-58
2024/04/25 00:41:23;;;;;;;0.60;0.60;;;;;;;2.22;100.00;96023.25;29395;246;63009;-58
2024/04/25 00:41:55;;;;;;;0.60;0.60;;;;;;;2.24;100.00;96031.81;29395;230;63004;-58
2024/04/25 00:42:26;;;;;;;0.60;0.60;;;;;;;2.21;100.00;96029.66;29395;199;63009;-64
2024/04/25 00:42:59;;;;;;;0.60;0.60;;;;;;;2.20;100.00;96025.38;29395;217;63010;-57
2024/04/25 00:43:32;;;;;;;0.60;0.60;;;;;;;2.20;100.00;96020.00;29395;212;63009;-58
2024/04/25 00:44:04;;;;;;;0.60;0.60;;;;;;;2.17;100.00;96020.53;29394;217;64009;-58
2024/04/25 00:44:35;;;;;;;0.60;0.60;;;;;;;2.16;100.00;96024.28;29395;219;63009;-58
2024/04/25 00:45:07;;;;;;;0.60;0.60;;;;;;;2.16;100.00;96024.28;29395;241;63008;-57
2024/04/25 00:45:39;;;;;;;0.60;0.60;;;;;;;2.15;100.00;96022.66;29395;234;63009;-57
2024/04/25 00:46:10;;;;;;;0.60;0.60;;;;;;;2.15;100.00;96028.03;29395;224;63005;-57
2024/04/25 00:46:43;;;;;;;0.60;0.60;;;;;;;2.14;100.00;96026.41;29371;299;64013;-65
2024/04/25 00:47:20;;;;;;;0.60;0.60;;;;;;;2.13;100.00;96022.13;29373;236;63004;-57
2024/04/25 00:47:52;;;;;;;0.60;0.60;;;;;;;2.12;100.00;96018.62;29395;223;63009;-57
2024/04/25 00:48:26;;;;;;;0.60;0.60;;;;;;;2.12;100.00;96020.50;29395;222;63004;-57
2024/04/25 00:48:59;;;;;;;0.60;0.60;;;;;;;2.13;100.00;96036.31;29395;202;63022;-57
2024/04/25 00:49:31;;;;;;;0.60;0.60;;;;;;;2.16;100.00;96024.28;29395;221;63004;-58
2024/04/25 00:50:04;;;;;;;0.60;0.60;;;;;;;2.16;100.00;96024.28;29395;198;63009;-57
2024/04/25 00:50:37;;;;;;;0.60;0.60;;;;;;;2.17;100.00;96025.88;29395;234;63005;-57
2024/04/25 00:51:09;;;;;;;0.60;0.60;;;;;;;2.15;100.00;96020.00;29373;247;63009;-57
2024/04/25 00:51:41;;;;;;;0.60;0.60;;;;;;;2.15;100.00;96028.03;29373;229;63008;-58
2024/04/25 00:52:16;;;;;;;0.60;0.60;;;;;;;2.15;100.00;96025.34;29394;197;64013;-57
2024/04/25 00:52:48;;;;;;;0.60;0.60;;;;;;;2.15;100.00;96026.16;29395;199;63005;-57
2024/04/25 00:53:20;;;;;;;0.60;0.60;;;;;;;2.15;100.00;96020.00;29395;224;63027;-57
2024/04/25 00:53:52;;;;;;;0.60;0.60;;;;;;;2.15;100.00;96023.47;29395;240;63010;-57
2024/04/25 00:54:23;;;;;;;0.62;0.62;;;;;;;2.15;100.00;96022.66;29395;222;63009;-58
2024/04/25 00:54:55;;;;;;;0.60;0.60;;;;;;;2.15;100.00;96022.66;29395;239;63009;-57
2024/04/25 00:55:28;;;;;;;0.60;0.60;;;;;;;2.14;100.00;96024.53;29395;205;63009;-57
2024/04/25 00:56:02;;;;;;;0.60;0.60;;;;;;;2.15;100.00;96026.16;29394;285;64009;-56
2024/04/25 00:56:34;;;;;;;0.60;0.60;;;;;;;2.17;100.00;96025.88;29395;237;63008;-57
2024/04/25 00:57:06;;;;;;;0.60;0.60;;;;;;;2.16;100.00;96025.09;29395;196;63004;-57
2024/04/25 00:57:39;;;;;;;0.60;0.60;;;;;;;2.14;100.00;96021.06;29395;235;63009;-58
2024/04/25 00:58:13;;;;;;;0.60;0.60;;;;;;;2.13;100.00;96024.78;29395;217;63005;-58
2024/04/25 00:58:48;;;;;;;0.60;0.60;;;;;;;2.10;100.00;96022.63;29395;222;63009;-57
2024/04/25 00:59:22;;;;;;;0.60;0.60;;;;;;;2.09;100.00;96016.47;29395;200;63005;-57
2024/04/25 00:59:56;;;;;;;0.60;0.60;;;;;;;2.09;100.00;96023.69;29395;235;63009;-57
2024/04/25 01:00:31;;;;;;;0.60;0.60;;;;;;;2.08;100.00;96011.41;29395;218;63005;-58
2024/04/25 01:01:03;;;;;;;0.60;0.60;;;;;;;2.08;100.00;96022.91;29394;205;64013;-57
2024/04/25 01:01:38;;;;;;;0.60;0.60;;;;;;;2.08;100.00;96022.91;29394;250;64009;-56
2024/04/25 01:02:11;;;;;;;0.60;0.60;;;;;;;2.10;100.00;96020.75;29395;222;63009;-57
2024/04/25 01:02:43;;;;;;;0.60;0.60;;;;;;;2.12;100.00;96017.84;29395;209;63007;-57
2024/04/25 01:03:15;;;;;;;0.60;0.60;;;;;;;2.12;100.00;96015.16;29395;242;63009;-56
2024/04/25 01:03:48;;;;;;;0.60;0.60;;;;;;;2.13;100.00;96016.75;29395;199;63004;-57
2024/04/25 01:04:25;;;;;;;0.60;0.60;;;;;;;2.14;100.00;96015.69;29373;245;63008;-64
2024/04/25 01:05:00;;;;;;;0.70;0.70;;;;;;;2.15;100.00;96017.31;29373;253;63005;-57
2024/04/25 01:05:34;;;;;;;0.70;0.70;;;;;;;2.14;100.00;96015.69;29373;223;63009;-57
2024/04/25 01:06:07;;;;;;;0.70;0.70;;;;;;;2.14;100.00;96015.69;29373;310;63005;-57
2024/04/25 01:06:41;;;;;;;0.60;0.60;;;;;;;2.13;100.00;96014.09;29371;261;64013;-57
2024/04/25 01:07:13;;;;;;;0.60;0.60;;;;;;;2.13;100.00;96014.09;29373;222;63005;-57
2024/04/25 01:07:45;;;;;;;0.60;0.60;;;;;;;2.12;100.00;96017.84;29373;202;63009;-57
2024/04/25 01:08:17;;;;;;;0.60;0.60;;;;;;;2.12;100.00;96012.47;29373;209;63004;-58
2024/04/25 01:08:48;;;;;;;0.60;0.60;;;;;;;2.11;100.00;96014.34;29373;218;63009;-57
2024/04/25 01:09:22;;;;;;;0.68;0.68;;;;;;;2.11;100.00;96016.22;29395;218;63004;-57
2024/04/25 01:09:56;;;;;;;0.60;0.60;;;;;;;2.10;100.00;96010.06;29371;233;64013;-57
2024/04/25 01:10:27;;;;;;;0.60;0.60;;;;;;;2.12;100.00;96007.94;29373;212;63004;-65
2024/04/25 01:11:00;;;;;;;0.60;0.60;;;;;;;2.13;100.00;96014.91;29395;224;63019;-57
2024/04/25 01:11:33;;;;;;;0.60;0.60;;;;;;;2.14;100.00;96013.03;29395;196;63004;-56
2024/04/25 01:12:05;;;;;;;0.70;0.70;;;;;;;2.14;100.00;96013.03;29395;228;63008;-58
2024/04/25 01:12:36;;;;;;;0.60;0.60;;;;;;;2.14;100.00;96011.16;29395;271;63005;-56
2024/04/25 01:13:08;;;;;;;0.60;0.60;;;;;;;2.15;100.00;96011.97;29395;210;63009;-57
2024/04/25 01:13:39;;;;;;;0.70;0.70;;;;;;;2.16;100.00;96011.69;29395;208;63005;-57
2024/04/25 01:14:10;;;;;;;0.60;0.60;;;;;;;2.15;100.00;96006.59;29395;222;63009;-57
2024/04/25 01:14:44;;;;;;;0.70;0.70;;;;;;;2.13;100.00;96014.09;29373;199;63005;-58
2024/04/25 01:15:15;;;;;;;0.60;0.60;;;;;;;2.12;100.00;96009.81;29394;227;64013;-57
2024/04/25 01:15:47;;;;;;;0.60;0.60;;;;;;;2.13;100.00;96014.91;29395;217;63005;-57
2024/04/25 01:16:18;;;;;;;0.60;0.60;;;;;;;2.13;100.00;96014.91;29395;244;63024;-57
2024/04/25 01:16:52;;;;;;;0.60;0.60;;;;;;;2.11;100.00;96011.69;29395;284;63004;-55
2024/04/25 01:17:24;;;;;;;0.60;0.60;;;;;;;2.12;100.00;96012.47;29373;211;63009;-58
2024/04/25 01:18:02;;;;;;;0.60;0.60;;;;;;;2.12;100.00;96009.81;29373;237;63004;-57
2024/04/25 01:18:34;;;;;;;0.60;0.60;;;;;;;2.13;100.00;96003.38;29373;241;63008;-57
2024/04/25 01:19:08;;;;;;;0.60;0.60;;;;;;;2.14;100.00;96005.81;29373;199;63004;-57
2024/04/25 01:19:39;;;;;;;0.60;0.60;;;;;;;2.14;100.00;96005.81;29395;197;63012;-57
2024/04/25 01:20:11;;;;;;;0.60;0.60;;;;;;;2.13;100.00;96003.38;29395;242;63005;-57
2024/04/25 01:20:42;;;;;;;0.60;0.60;;;;;;;2.09;100.00;96007.66;29371;203;64014;-57
2024/04/25 01:21:13;;;;;;;0.60;0.60;;;;;;;2.08;100.00;96006.06;29373;237;63005;-57
2024/04/25 01:21:46;;;;;;;0.60;0.60;;;;;;;2.07;100.00;96005.25;29373;198;63009;-57
2024/04/25 01:22:18;;;;;;;0.60;0.60;;;;;;;2.08;100.00;96001.47;29395;250;63005;-57
2024/04/25 01:22:53;;;;;;;0.60;0.60;;;;;;;2.11;100.00;96005.50;29373;232;63009;-57
2024/04/25 01:23:30;;;;;;;0.60;0.60;;;;;;;2.14;100.00;96007.66;29395;258;63009;-57
2024/04/25 01:24:03;;;;;;;0.60;0.60;;;;;;;2.16;100.00;96002.88;29373;225;63009;-58
2024/04/25 01:24:34;;;;;;;0.60;0.60;;;;;;;2.15;100.00;96004.72;29373;240;63015;-57
2024/04/25 01:25:08;;;;;;;0.60;0.60;;;;;;;2.14;100.00;96005.00;29373;234;63009;-57
2024/04/25 01:25:39;;;;;;;0.60;0.60;;;;;;;2.13;100.00;96003.38;29373;218;63004;-57
2024/04/25 01:26:13;;;;;;;0.60;0.60;;;;;;;2.11;100.00;96003.66;29371;287;64013;-57
2024/04/25 01:26:44;;;;;;;0.60;0.60;;;;;;;2.11;100.00;96000.16;29395;220;63011;-57
2024/04/25 01:27:17;;;;;;;0.60;0.60;;;;;;;2.13;100.00;95998.84;29395;206;63009;-58
2024/04/25 01:27:50;;;;;;;0.60;0.60;;;;;;;2.14;100.00;96005.00;29395;198;63005;-57
2024/04/25 01:28:21;;;;;;;0.60;0.60;;;;;;;2.14;100.00;95999.66;29395;197;63022;-58
2024/04/25 01:28:55;;;;;;;0.60;0.60;;;;;;;2.14;100.00;95995.09;29395;206;63011;-57
2024/04/25 01:29:30;;;;;;;0.60;0.60;;;;;;;2.16;100.00;96002.88;29395;202;63009;-57
2024/04/25 01:30:02;;;;;;;0.60;0.60;;;;;;;2.18;100.00;96006.91;29395;207;63005;-64
2024/04/25 01:30:34;;;;;;;0.60;0.60;;;;;;;2.20;100.00;96003.97;29373;246;63009;-57
2024/04/25 01:31:06;;;;;;;0.60;0.60;;;;;;;2.21;100.00;96000.22;29395;240;63004;-58
2024/04/25 01:31:38;;;;;;;0.60;0.60;;;;;;;2.20;100.00;96009.31;29394;223;64009;-58
2024/04/25 01:32:11;;;;;;;0.60;0.60;;;;;;;2.19;100.00;95994.31;29395;202;63004;-57
2024/04/25 01:32:42;;;;;;;0.60;0.60;;;;;;;2.19;100.00;95991.63;29371;239;64013;-57
2024/04/25 01:33:15;;;;;;;0.60;0.60;;;;;;;2.21;100.00;95993.00;29373;224;63004;-57
2024/04/25 01:33:48;;;;;;;0.60;0.60;;;;;;;2.23;100.00;96000.75;29395;250;63008;-57
2024/04/25 01:34:20;;;;;;;0.60;0.60;;;;;;;2.26;100.00;95995.69;29395;272;63012;-57
2024/04/25 01:34:52;;;;;;;0.60;0.60;;;;;;;2.27;100.00;95997.31;29373;265;63009;-57
2024/04/25 01:35:29;;;;;;;0.60;0.60;;;;;;;2.28;100.00;95995.44;29395;209;63005;-57
2024/04/25 01:36:01;;;;;;;0.60;0.60;;;;;;;2.25;100.00;95998.63;29395;206;63009;-57
2024/04/25 01:36:37;;;;;;;0.60;0.60;;;;;;;2.27;100.00;95999.19;29373;207;63005;-57
2024/04/25 01:37:08;;;;;;;0.60;0.60;;;;;;;2.26;100.00;95997.56;29371;259;64013;-57
2024/04/25 01:37:41;;;;;;;0.60;0.60;;;;;;;2.27;100.00;95999.19;29371;240;64009;-57
2024/04/25 01:38:12;;;;;;;0.60;0.60;;;;;;;2.26;100.00;95997.56;29373;234;63009;-57
2024/04/25 01:38:43;;;;;;;0.60;0.60;;;;;;;2.26;100.00;96002.91;29395;232;63004;-58
2024/04/25 01:39:17;;;;;;;0.60;0.60;;;;;;;2.28;100.00;95990.09;29373;225;63009;-56
2024/04/25 01:39:51;;;;;;;0.70;0.70;;;;;;;2.30;100.00;96004.00;29373;223;63004;-57
2024/04/25 01:40:23;;;;;;;0.60;0.60;;;;;;;2.30;100.00;96004.00;29373;212;63009;-57
2024/04/25 01:40:54;;;;;;;0.60;0.60;;;;;;;2.29;100.00;95997.84;29395;237;63004;-57
2024/04/25 01:41:28;;;;;;;0.60;0.60;;;;;;;2.29;100.00;95991.69;29373;204;63008;-63
2024/04/25 01:41:59;;;;;;;0.60;0.60;;;;;;;2.28;100.00;95995.44;29395;259;63005;-64
2024/04/25 01:42:31;;;;;;;0.60;0.60;;;;;;;2.28;100.00;95995.44;29373;292;63009;-57
2024/04/25 01:43:02;;;;;;;0.60;0.60;;;;;;;2.27;100.00;95991.94;29394;246;64009;-57
2024/04/25 01:43:34;;;;;;;0.60;0.60;;;;;;;2.27;100.00;96001.84;29395;227;63009;-57
2024/04/25 01:44:06;;;;;;;2.08;2.05;;;;;;;2.27;100.00;95991.16;29373;240;63005;-56
2024/04/25 01:44:40;;;;;;;0.60;0.60;;;;;;;2.27;100.00;95994.63;29373;231;63009;-58
2024/04/25 01:45:11;;;;;;;0.60;0.60;;;;;;;2.25;100.00;95998.63;29373;206;63005;-57
2024/04/25 01:45:43;;;;;;;0.60;0.60;;;;;;;2.25;100.00;95990.59;29395;213;63009;-57
2024/04/25 01:46:14;;;;;;;0.60;0.60;;;;;;;2.25;100.00;95996.75;29373;209;63004;-56
2024/04/25 01:46:47;;;;;;;0.60;0.60;;;;;;;2.26;100.00;95992.22;29395;214;63020;-56
2024/04/25 01:47:19;;;;;;;0.60;0.60;;;;;;;2.31;100.00;95997.59;29395;212;63004;-57
2024/04/25 01:47:50;;;;;;;0.60;0.60;;;;;;;2.31;100.00;95992.22;29394;226;64009;-65
2024/04/25 01:48:21;;;;;;;0.60;0.60;;;;;;;2.30;100.00;95990.63;29395;202;63004;-56
2024/04/25 01:48:53;;;;;;;0.60;0.60;;;;;;;2.26;100.00;95986.84;29395;206;63008;-56
2024/04/25 01:49:25;;;;;;;0.60;0.60;;;;;;;2.30;100.00;95983.41;29395;222;63005;-57
2024/04/25 01:49:56;;;;;;;0.60;0.60;;;;;;;2.33;100.00;95990.09;29395;241;63009;-56
2024/04/25 01:50:27;;;;;;;0.60;0.60;;;;;;;2.36;100.00;95992.25;29395;239;63005;-57
2024/04/25 01:50:58;;;;;;;0.60;0.60;;;;;;;2.35;100.00;95990.66;29395;337;63009;-57
2024/04/25 01:51:30;;;;;;;0.60;0.60;;;;;;;2.33;100.00;95990.09;29394;243;64005;-56
2024/04/25 01:52:02;;;;;;;0.60;0.60;;;;;;;2.34;100.00;95986.34;29395;232;63024;-57
2024/04/25 01:52:33;;;;;;;0.60;0.60;;;;;;;2.32;100.00;95985.81;29395;219;63005;-56
2024/04/25 01:53:04;;;;;;;0.60;0.60;;;;;;;2.31;100.00;95979.66;29394;233;64013;-56
2024/04/25 01:53:36;;;;;;;0.60;0.60;;;;;;;2.33;100.00;95992.78;29395;196;63004;-65
2024/04/25 01:54:07;;;;;;;0.60;0.60;;;;;;;2.34;100.00;95989.84;29395;328;63009;-56
2024/04/25 01:54:38;;;;;;;0.60;0.60;;;;;;;2.34;100.00;95983.69;29394;239;64009;-56
2024/04/25 01:55:10;;;;;;;0.60;0.60;;;;;;;2.33;100.00;95982.06;29395;206;63009;-56
2024/04/25 01:55:42;;;;;;;0.60;0.60;;;;;;;2.32;100.00;95980.47;29395;229;63004;-56
2024/04/25 01:56:14;;;;;;;0.60;0.60;;;;;;;2.33;100.00;95982.88;29395;246;63008;-57
2024/04/25 01:56:45;;;;;;;0.60;0.60;;;;;;;2.32;100.00;95981.25;29395;210;63010;-55
2024/04/25 01:57:17;;;;;;;0.60;0.60;;;;;;;2.32;100.00;95980.47;29394;211;64014;-56
2024/04/25 01:57:48;;;;;;;0.60;0.60;;;;;;;2.30;100.00;95977.25;29394;206;64009;-56
2024/04/25 01:58:19;;;;;;;0.60;0.60;;;;;;;2.31;100.00;95978.84;29395;237;63017;-56
2024/04/25 01:58:52;;;;;;;0.60;0.60;;;;;;;2.34;100.00;95989.03;29395;197;63005;-55
2024/04/25 01:59:24;;;;;;;0.55;0.55;;;;;;;2.34;100.00;95979.13;29395;231;63009;-57
2024/04/25 01:59:55;;;;;;;0.60;0.60;;;;;;;2.34;100.00;95975.66;29395;219;63005;-57
2024/04/25 02:00:26;;;;;;;0.60;0.60;;;;;;;2.34;100.00;95981.81;29395;218;63009;-58
2024/04/25 02:00:58;;;;;;;0.60;0.60;;;;;;;2.33;100.00;95984.75;29395;235;63009;-57
2024/04/25 02:01:29;;;;;;;0.60;0.60;;;;;;;2.32;100.00;95985.81;29395;302;63009;-58
2024/04/25 02:02:00;;;;;;;0.60;0.60;;;;;;;2.31;100.00;95981.53;29395;223;63004;-58
2024/04/25 02:02:32;;;;;;;0.60;0.60;;;;;;;2.30;100.00;95982.59;29394;202;64013;-58
2024/04/25 02:03:04;;;;;;;0.60;0.60;;;;;;;2.29;100.00;95987.13;29395;325;63004;-57
2024/04/25 02:03:35;;;;;;;0.60;0.60;;;;;;;2.29;100.00;95980.97;29395;221;63009;-56
2024/04/25 02:04:06;;;;;;;0.60;0.60;;;;;;;2.32;100.00;95981.25;29395;278;63004;-57
2024/04/25 02:04:39;;;;;;;0.60;0.60;;;;;;;2.33;100.00;95990.91;29394;211;64014;-57
2024/04/25 02:05:10;;;;;;;0.60;0.60;;;;;;;2.33;100.00;95982.06;29395;217;63005;-58
2024/04/25 02:05:42;;;;;;;0.60;0.60;;;;;;;2.34;100.00;95989.03;29395;247;63009;-56
2024/04/25 02:06:13;;;;;;;0.68;0.68;;;;;;;2.33;100.00;95990.09;29395;230;63005;-57
2024/04/25 02:06:48;;;;;;;0.60;0.60;;;;;;;2.33;100.00;95982.06;29395;220;63009;-57
2024/04/25 02:07:19;;;;;;;0.60;0.60;;;;;;;2.32;100.00;95975.09;29395;253;63005;-58
2024/04/25 02:07:50;;;;;;;0.60;0.60;;;;;;;2.34;100.00;95989.03;29395;214;63009;-58
2024/04/25 02:08:22;;;;;;;0.60;0.60;;;;;;;2.32;100.00;95981.25;29395;220;63004;-56
2024/04/25 02:08:54;;;;;;;0.60;0.60;;;;;;;2.34;100.00;95983.69;29395;233;63009;-56
2024/04/25 02:09:25;;;;;;;0.60;0.60;;;;;;;2.38;100.00;95979.41;29395;205;63004;-56
2024/04/25 02:09:57;;;;;;;0.60;0.60;;;;;;;2.38;100.00;95979.41;29394;273;64013;-57
2024/04/25 02:10:28;;;;;;;0.60;0.60;;;;;;;2.39;100.00;95981.03;29395;253;63004;-57
2024/04/25 02:10:59;;;;;;;0.60;0.60;;;;;;;2.40;100.00;95976.47;29395;206;63008;-56
2024/04/25 02:11:30;;;;;;;0.60;0.60;;;;;;;2.38;100.00;95971.38;29394;237;64004;-57
2024/04/25 02:12:01;;;;;;;0.60;0.60;;;;;;;2.40;100.00;95971.94;29395;223;63009;-58
2024/04/25 02:12:33;;;;;;;0.60;0.60;;;;;;;2.42;100.00;95974.34;29394;239;64009;-56
2024/04/25 02:13:05;;;;;;;0.60;0.60;;;;;;;2.40;100.00;95977.28;29395;217;63009;-57
2024/04/25 02:13:36;;;;;;;0.60;0.60;;;;;;;2.40;100.00;95977.28;29395;210;63005;-57
2024/04/25 02:14:07;;;;;;;0.60;0.60;;;;;;;2.44;100.00;95972.19;29395;265;63009;-58
2024/04/25 02:14:39;;;;;;;0.60;0.60;;;;;;;2.43;100.00;95975.91;29395;332;63005;-58
2024/04/25 02:15:10;;;;;;;0.60;0.60;;;;;;;2.42;100.00;95972.47;29395;214;63009;-57
2024/04/25 02:15:41;;;;;;;0.60;0.60;;;;;;;2.42;100.00;95979.69;29394;229;64009;-57
2024/04/25 02:16:13;;;;;;;0.60;0.60;;;;;;;2.41;100.00;95976.22;29395;304;63009;-56
2024/04/25 02:16:44;;;;;;;0.60;0.60;;;;;;;2.43;100.00;95978.59;29395;219;63004;-55
2024/04/25 02:17:16;;;;;;;0.60;0.60;;;;;;;2.46;100.00;95976.19;29395;202;63009;-57
2024/04/25 02:17:47;;;;;;;0.60;0.60;;;;;;;2.51;100.00;95981.56;29395;282;63004;-57
2024/04/25 02:18:18;;;;;;;0.60;0.60;;;;;;;2.50;100.00;95971.94;29394;227;64013;-58
2024/04/25 02:18:49;;;;;;;0.60;0.60;;;;;;;2.46;100.00;95976.19;29395;226;63005;-57
2024/04/25 02:19:20;;;;;;;0.60;0.60;;;;;;;2.45;100.00;95974.59;29395;240;63009;-58
2024/04/25 02:19:53;;;;;;;0.60;0.60;;;;;;;2.46;100.00;95978.88;29395;229;63015;-59
2024/04/25 02:25:25;;;;;;;0.60;0.60;;;;;;;2.39;100.00;95975.66;29395;327;63009;-56
2024/04/25 02:25:56;;;;;;;0.60;0.60;;;;;;;2.39;100.00;95975.66;29373;330;63004;-57
2024/04/25 02:26:27;;;;;;;0.60;0.60;;;;;;;2.35;100.00;95975.38;29373;243;63009;-58
2024/04/25 02:26:58;;;;;;;0.60;0.60;;;;;;;2.33;100.00;95974.03;29373;205;63005;-57
2024/04/25 02:27:31;;;;;;;0.60;0.60;;;;;;;2.33;100.00;95974.84;29395;250;63009;-57
2024/04/25 02:28:03;;;;;;;0.60;0.60;;;;;;;2.34;100.00;95975.66;29373;214;63005;-66
2024/04/25 02:28:34;;;;;;;0.60;0.60;;;;;;;2.33;100.00;95977.53;29395;293;63015;-56
2024/04/25 02:29:08;;;;;;;0.60;0.60;;;;;;;2.33;100.00;95982.06;29371;238;64009;-58
2024/04/25 02:29:39;;;;;;;0.60;0.60;;;;;;;2.34;100.00;95972.97;29373;213;63009;-56
2024/04/25 02:30:10;;;;;;;0.60;0.60;;;;;;;2.34;100.00;95975.66;29395;219;63005;-57
2024/04/25 02:30:41;;;;;;;0.60;0.60;;;;;;;2.35;100.00;95971.91;29373;210;63013;-57
2024/04/25 02:31:16;;;;;;;0.60;0.60;;;;;;;2.35;100.00;95969.22;29394;239;64009;-58
2024/04/25 02:31:48;;;;;;;0.60;0.60;;;;;;;2.34;100.00;95972.97;29373;231;63009;-58
2024/04/25 02:32:19;;;;;;;0.60;0.60;;;;;;;2.32;100.00;95967.88;29395;236;63008;-57
2024/04/25 02:32:50;;;;;;;0.60;0.60;;;;;;;2.36;100.00;95970.84;29395;274;63019;-58
2024/04/25 02:33:22;;;;;;;0.60;0.60;;;;;;;2.36;100.00;95973.53;29373;202;63004;-58
2024/04/25 02:33:53;;;;;;;0.60;0.60;;;;;;;2.35;100.00;95971.91;29395;212;63009;-57
2024/04/25 02:34:24;;;;;;;0.60;0.60;;;;;;;2.34;100.00;95979.13;29395;205;63005;-56
2024/04/25 02:34:58;;;;;;;0.60;0.60;;;;;;;2.34;100.00;95975.66;29395;212;63009;-56
2024/04/25 02:35:30;;;;;;;0.60;0.60;;;;;;;2.34;100.00;95981.00;29395;202;63009;-56
2024/04/25 02:36:01;;;;;;;0.60;0.60;;;;;;;2.33;100.00;95974.84;29395;221;63009;-57
2024/04/25 02:36:32;;;;;;;0.60;0.60;;;;;;;2.33;100.00;95979.41;29394;243;64009;-57
2024/04/25 02:37:04;;;;;;;0.60;0.60;;;;;;;2.40;100.00;95971.94;29394;197;64013;-57
2024/04/25 02:37:35;;;;;;;0.60;0.60;;;;;;;2.42;100.00;95975.16;29395;234;63005;-57